Terminal Aerodrome Forecast
Issued by NWS Grand Forks, ND

Home | Current Version | Previous Version | Text Only | Print | Product List | Glossary Off
Versions: 1 2 3 4 5 6 7 8 9 10 11 12 13 14 15 16 17 18 19 20

000
FTUS43 KFGF 241600 AAB
TAFFAR
TAF AMD
KFAR 241636Z 2417/2512 33022G28KT 4SM -SN BR OVC020
      TEMPO 2417/2418 1SM -SN BR OVC015
     FM241800 33022G29KT P6SM OVC025
     FM242300 32009KT P6SM BKN250
     FM250700 23005KT P6SM BKN100
     FM251100 22005KT P6SM OVC025=

USA.gov is the U.S. government's official web portal to all federal, state and local government web resources and services.